Time;durP1;ratioP1;P1;durP2;ratioP2;P2;SDS_P1;SDS_P2;PMS_P1;PMS_P2;Temp;Humidity;BMP_temperature;BMP_pressure;BME280_temperature;BME280_humidity;BME280_pressure;Samples;Min_cycle;Max_cycle;Signal;HPM_P1;HPM_P2
2021/01/30 00:02:05;;;;;;;0.20;0.13;;;11.90;81.70;;;;;;4974042;28;20110;-78
2021/01/30 00:04:31;;;;;;;5.82;0.20;;;11.80;81.70;;;;;;4972370;28;20069;-78
2021/01/30 00:06:57;;;;;;;1.35;0.30;;;11.80;81.70;;;;;;4955338;28;20042;-79
2021/01/30 00:09:24;;;;;;;2.05;0.35;;;11.80;81.70;;;;;;4974181;28;20035;-78
2021/01/30 00:11:52;;;;;;;0.30;0.20;;;11.80;81.70;;;;;;4956944;28;20503;-78
2021/01/30 00:14:22;;;;;;;4.35;0.60;;;11.80;81.80;;;;;;4974435;28;20398;-78
2021/01/30 00:16:48;;;;;;;1.13;0.38;;;11.80;81.80;;;;;;4973848;28;20031;-79
2021/01/30 00:19:14;;;;;;;0.68;0.20;;;11.80;81.80;;;;;;4972430;28;20053;-79
2021/01/30 00:21:40;;;;;;;0.80;0.20;;;11.80;81.80;;;;;;4973751;28;20399;-78
2021/01/30 00:24:07;;;;;;;0.32;0.15;;;11.80;81.90;;;;;;4974435;28;20043;-78
2021/01/30 00:26:33;;;;;;;0.00;0.00;;;11.80;81.90;;;;;;4941390;28;20035;-81
2021/01/30 00:28:59;;;;;;;0.00;0.00;;;11.80;81.90;;;;;;4972708;28;20043;-78
2021/01/30 00:31:25;;;;;;;0.45;0.00;;;11.80;81.90;;;;;;4956421;28;20435;-80
2021/01/30 00:33:51;;;;;;;0.20;0.17;;;11.80;81.90;;;;;;4972486;28;20399;-78
2021/01/30 00:36:17;;;;;;;0.00;0.00;;;11.80;82.00;;;;;;4973315;28;20043;-78
2021/01/30 00:38:43;;;;;;;0.00;0.00;;;11.80;82.00;;;;;;4974271;28;20615;-79
2021/01/30 00:41:09;;;;;;;0.00;0.00;;;11.80;82.00;;;;;;4972216;28;20054;-78
2021/01/30 00:43:35;;;;;;;0.10;0.00;;;11.80;82.10;;;;;;4972905;28;20387;-79
2021/01/30 00:46:02;;;;;;;0.00;0.00;;;11.80;82.10;;;;;;4972656;28;20054;-79
2021/01/30 00:48:28;;;;;;;0.55;0.28;;;11.80;82.20;;;;;;4971453;28;20799;-78
2021/01/30 00:50:54;;;;;;;0.00;0.00;;;11.80;82.20;;;;;;4972416;28;20035;-79
2021/01/30 00:53:20;;;;;;;0.10;0.00;;;11.80;82.20;;;;;;4974598;28;20795;-79
2021/01/30 00:55:46;;;;;;;0.25;0.03;;;11.80;82.20;;;;;;4972791;28;20045;-82
2021/01/30 00:58:12;;;;;;;0.00;0.00;;;11.80;82.20;;;;;;4956359;28;20521;-78
2021/01/30 01:00:38;;;;;;;0.77;0.15;;;11.80;82.20;;;;;;4972723;28;20031;-78
2021/01/30 01:03:04;;;;;;;1.48;0.32;;;11.80;82.20;;;;;;4972249;28;20042;-78
2021/01/30 01:05:30;;;;;;;0.25;0.20;;;11.80;82.20;;;;;;4968109;28;20087;-78
2021/01/30 01:07:56;;;;;;;0.00;0.00;;;11.80;82.20;;;;;;4971861;28;20043;-78
2021/01/30 01:10:22;;;;;;;7.97;0.40;;;11.80;82.20;;;;;;4974088;28;20034;-78
2021/01/30 01:12:49;;;;;;;0.13;0.13;;;11.90;82.30;;;;;;4956147;28;20042;-78
2021/01/30 01:15:16;;;;;;;0.00;0.00;;;11.90;82.30;;;;;;4956330;28;20039;-78
2021/01/30 01:17:42;;;;;;;2.58;0.32;;;11.90;82.30;;;;;;4973827;28;20038;-78
2021/01/30 01:20:12;;;;;;;0.15;0.08;;;11.90;82.30;;;;;;4972735;28;20031;-78
2021/01/30 01:22:38;;;;;;;0.60;0.03;;;11.90;82.40;;;;;;4956498;28;20027;-78
2021/01/30 01:25:04;;;;;;;0.08;0.00;;;11.90;82.30;;;;;;4956347;28;20042;-79
2021/01/30 01:27:31;;;;;;;0.25;0.00;;;11.90;82.50;;;;;;4972898;28;20050;-78
2021/01/30 01:29:58;;;;;;;0.00;0.00;;;11.90;82.50;;;;;;4973518;28;20031;-77
2021/01/30 01:32:24;;;;;;;0.00;0.00;;;11.90;82.50;;;;;;4971812;28;20035;-80
2021/01/30 01:34:50;;;;;;;2.00;0.25;;;11.90;82.50;;;;;;4972627;28;20031;-79
2021/01/30 01:37:16;;;;;;;0.00;0.00;;;11.90;82.50;;;;;;4973887;28;20038;-79
2021/01/30 01:39:42;;;;;;;0.00;0.00;;;11.90;82.50;;;;;;4971815;28;20078;-78
2021/01/30 01:42:21;;;;;;;0.00;0.00;;;11.90;82.50;;;;;;4973763;28;20035;-78
2021/01/30 01:44:47;;;;;;;0.00;0.00;;;11.90;82.60;;;;;;4972714;28;20654;-78
2021/01/30 01:47:19;;;;;;;0.00;0.00;;;11.90;82.60;;;;;;4972931;28;20043;-78
2021/01/30 01:49:45;;;;;;;0.00;0.00;;;11.90;82.60;;;;;;4973529;28;20042;-78
2021/01/30 01:52:31;;;;;;;0.00;0.00;;;11.90;82.60;;;;;;4955938;28;20034;-78
2021/01/30 01:55:05;;;;;;;0.00;0.00;;;12.00;82.60;;;;;;4956056;28;20035;-78
2021/01/30 01:57:31;;;;;;;1.85;0.28;;;12.00;82.60;;;;;;4954247;28;20038;-79
2021/01/30 01:59:57;;;;;;;0.00;0.00;;;11.90;82.60;;;;;;4972332;28;20038;-79
2021/01/30 02:02:24;;;;;;;0.20;0.00;;;11.90;82.60;;;;;;4972601;28;20042;-78
2021/01/30 02:05:11;;;;;;;0.13;0.00;;;11.90;82.70;;;;;;4940299;28;20046;-78
2021/01/30 02:07:41;;;;;;;0.00;0.00;;;11.90;82.80;;;;;;4995939;28;20038;-78
2021/01/30 02:10:12;;;;;;;0.00;0.00;;;11.90;82.80;;;;;;4960355;28;20026;-78
2021/01/30 02:12:39;;;;;;;;;;;11.90;82.80;;;;;;4976314;28;20475;-80
2021/01/30 02:15:06;;;;;;;0.00;0.00;;;11.90;82.90;;;;;;4974713;28;20294;-78
2021/01/30 02:17:43;;;;;;;0.00;0.00;;;11.90;82.80;;;;;;4958801;28;20036;-78
2021/01/30 02:20:44;;;;;;;0.00;0.00;;;11.90;82.70;;;;;;4944943;28;20047;-80
2021/01/30 02:23:35;;;;;;;0.00;0.00;;;11.90;82.80;;;;;;4976605;28;20035;-78
2021/01/30 02:26:12;;;;;;;;;;;12.00;82.80;;;;;;4976028;28;20391;-79
2021/01/30 02:28:47;;;;;;;0.00;0.00;;;12.00;82.80;;;;;;4991456;28;19918;-77
2021/01/30 02:31:16;;;;;;;0.00;0.00;;;12.00;82.70;;;;;;4974971;28;20090;-77
2021/01/30 02:34:00;;;;;;;0.00;0.00;;;12.00;82.80;;;;;;5006650;28;20039;-78
2021/01/30 02:37:07;;;;;;;0.00;0.00;;;12.00;82.90;;;;;;4975976;28;20042;-78
2021/01/30 02:39:46;;;;;;;0.00;0.00;;;12.00;82.90;;;;;;4959261;28;20038;-78
2021/01/30 02:42:21;;;;;;;0.00;0.00;;;12.00;82.90;;;;;;4960111;28;20031;-77
2021/01/30 02:45:11;;;;;;;0.00;0.00;;;12.00;82.90;;;;;;4959740;28;20041;-78
2021/01/30 02:47:39;;;;;;;0.05;0.03;;;12.00;83.00;;;;;;4974003;28;20058;-77
2021/01/30 02:50:33;;;;;;;0.00;0.00;;;12.00;82.90;;;;;;4978315;28;20038;-78
2021/01/30 02:53:00;;;;;;;0.00;0.00;;;12.10;83.10;;;;;;4993278;28;20030;-78
2021/01/30 02:55:26;;;;;;;0.00;0.00;;;12.10;82.90;;;;;;4961788;28;20049;-78
2021/01/30 02:57:52;;;;;;;0.10;0.00;;;12.10;82.90;;;;;;4977077;28;20030;-78
2021/01/30 03:00:21;;;;;;;0.00;0.00;;;12.10;82.90;;;;;;4976774;28;20037;-78
2021/01/30 03:02:47;;;;;;;0.10;0.00;;;12.10;83.00;;;;;;4974923;28;20030;-79
2021/01/30 03:05:13;;;;;;;0.00;0.00;;;12.10;83.00;;;;;;5006549;28;20048;-78
2021/01/30 03:07:52;;;;;;;0.00;0.00;;;12.20;83.10;;;;;;4971009;28;20043;-79
2021/01/30 03:10:40;;;;;;;0.00;0.00;;;12.20;83.10;;;;;;4991349;28;20478;-78
2021/01/30 03:13:12;;;;;;;0.00;0.00;;;12.20;83.10;;;;;;5005680;28;20044;-79
2021/01/30 03:15:54;;;;;;;0.00;0.00;;;12.20;83.10;;;;;;5008325;28;20022;-78
2021/01/30 03:18:23;;;;;;;0.00;0.00;;;12.20;83.10;;;;;;5025920;28;20390;-78
2021/01/30 03:20:49;;;;;;;0.00;0.00;;;12.20;83.10;;;;;;4977522;28;20034;-78
2021/01/30 03:23:16;;;;;;;2.58;0.05;;;12.30;83.10;;;;;;4978445;28;20427;-78
2021/01/30 03:25:42;;;;;;;0.00;0.00;;;12.30;83.20;;;;;;5009800;28;20034;-80
2021/01/30 03:28:08;;;;;;;0.00;0.00;;;12.30;83.20;;;;;;5022320;28;20372;-78
2021/01/30 03:30:34;;;;;;;0.00;0.00;;;12.30;83.20;;;;;;5009969;28;20425;-78
2021/01/30 03:33:01;;;;;;;0.00;0.00;;;12.40;83.30;;;;;;4992893;28;20030;-78
2021/01/30 03:35:27;;;;;;;0.00;0.00;;;12.40;83.30;;;;;;4975063;28;20038;-78
2021/01/30 03:37:53;;;;;;;0.00;0.00;;;12.40;83.30;;;;;;4994339;28;20034;-79
2021/01/30 03:40:19;;;;;;;0.00;0.00;;;12.40;83.30;;;;;;4992692;28;20489;-78
2021/01/30 03:42:45;;;;;;;0.38;0.08;;;12.40;83.30;;;;;;4992162;28;20493;-77
2021/01/30 03:45:13;;;;;;;0.00;0.00;;;12.40;83.30;;;;;;4993002;28;20043;-78
2021/01/30 03:47:39;;;;;;;0.00;0.00;;;12.50;83.40;;;;;;4992985;28;20031;-78
2021/01/30 03:50:07;;;;;;;0.20;0.00;;;12.50;83.30;;;;;;4993678;28;20060;-78
2021/01/30 03:52:33;;;;;;;0.00;0.00;;;12.50;83.30;;;;;;4994683;28;20406;-78
2021/01/30 03:54:59;;;;;;;0.00;0.00;;;12.50;83.30;;;;;;4993316;28;20030;-78
2021/01/30 03:57:25;;;;;;;0.00;0.00;;;12.60;83.50;;;;;;4960033;28;20023;-78
2021/01/30 03:59:51;;;;;;;1.20;0.00;;;12.60;83.50;;;;;;4994328;28;20037;-78
2021/01/30 04:02:17;;;;;;;0.00;0.00;;;12.60;83.50;;;;;;4975373;28;20035;-78
2021/01/30 04:04:46;;;;;;;0.00;0.00;;;12.60;83.50;;;;;;4977022;28;20042;-78
2021/01/30 04:07:13;;;;;;;0.00;0.00;;;12.60;83.50;;;;;;4993763;28;20477;-78
2021/01/30 04:09:39;;;;;;;0.00;0.00;;;12.60;83.50;;;;;;4992606;28;20406;-78
2021/01/30 04:12:05;;;;;;;2.35;0.20;;;12.60;83.50;;;;;;4992243;28;20039;-78
2021/01/30 04:14:33;;;;;;;0.00;0.00;;;12.60;83.50;;;;;;4992597;28;20394;-78
2021/01/30 04:16:59;;;;;;;0.00;0.00;;;12.70;83.60;;;;;;4959123;28;20045;-78
2021/01/30 04:19:25;;;;;;;0.00;0.00;;;12.70;83.60;;;;;;4993929;28;20390;-78
2021/01/30 04:21:51;;;;;;;0.00;0.00;;;12.70;83.70;;;;;;4991306;28;20038;-77
2021/01/30 04:24:17;;;;;;;0.00;0.00;;;12.70;83.80;;;;;;5010271;28;20459;-78
2021/01/30 04:26:47;;;;;;;0.05;0.05;;;12.70;83.80;;;;;;4993330;28;20030;-80
2021/01/30 04:29:13;;;;;;;0.00;0.00;;;12.70;83.80;;;;;;4975650;28;20054;-78
2021/01/30 04:31:40;;;;;;;0.00;0.00;;;12.70;83.80;;;;;;4993256;28;20034;-80
2021/01/30 04:34:06;;;;;;;0.00;0.00;;;12.70;83.90;;;;;;4992011;28;20061;-78
2021/01/30 04:36:32;;;;;;;0.55;0.20;;;12.70;83.90;;;;;;4991257;28;20041;-78
2021/01/30 04:38:58;;;;;;;0.00;0.00;;;12.70;84.00;;;;;;4993779;28;20216;-78
2021/01/30 04:41:39;;;;;;;0.00;0.00;;;12.80;84.10;;;;;;4959234;28;20050;-78
2021/01/30 04:44:16;;;;;;;0.00;0.00;;;12.80;84.10;;;;;;4992384;28;20037;-78
2021/01/30 04:46:45;;;;;;;1.08;0.25;;;12.80;84.10;;;;;;4960322;28;20474;-78
2021/01/30 04:49:27;;;;;;;0.00;0.00;;;12.80;84.10;;;;;;4991892;28;20068;-78
2021/01/30 04:52:05;;;;;;;0.63;0.20;;;12.80;84.10;;;;;;5022343;28;20030;-81
2021/01/30 04:54:54;;;;;;;0.00;0.00;;;12.80;84.10;;;;;;5005089;28;20509;-78
2021/01/30 04:57:32;;;;;;;1.38;0.28;;;12.80;84.20;;;;;;4976958;28;20035;-78
2021/01/30 05:00:04;;;;;;;0.10;0.00;;;12.70;84.10;;;;;;4992081;28;20074;-78
2021/01/30 05:03:07;;;;;;;0.00;0.00;;;12.70;84.20;;;;;;4992509;28;20387;-78
2021/01/30 05:05:33;;;;;;;0.43;0.00;;;12.70;84.30;;;;;;4992924;28;20042;-77
2021/01/30 05:08:04;;;;;;;0.00;0.00;;;12.70;84.20;;;;;;4975603;28;20050;-78
2021/01/30 05:10:33;;;;;;;8.30;0.20;;;12.70;84.30;;;;;;4976105;28;20371;-78
2021/01/30 05:13:07;;;;;;;0.00;0.00;;;12.70;84.30;;;;;;4975701;28;20035;-78
2021/01/30 05:15:44;;;;;;;0.55;0.05;;;12.70;84.40;;;;;;4988826;28;20046;-77
2021/01/30 05:18:16;;;;;;;0.00;0.00;;;12.70;84.40;;;;;;4991883;28;20034;-78
2021/01/30 05:20:51;;;;;;;0.40;0.10;;;12.70;84.40;;;;;;4959314;28;20383;-78
2021/01/30 05:23:17;;;;;;;0.10;0.00;;;12.60;84.40;;;;;;4976324;28;20034;-78
2021/01/30 05:25:51;;;;;;;0.00;0.00;;;12.60;84.40;;;;;;4975628;28;20035;-78
2021/01/30 05:28:53;;;;;;;2.35;0.20;;;12.60;84.40;;;;;;4959408;28;20057;-79
2021/01/30 05:31:29;;;;;;;4.32;0.80;;;12.60;84.40;;;;;;4981631;28;20045;-78
2021/01/30 05:34:02;;;;;;;0.47;0.10;;;12.60;84.40;;;;;;5003906;28;20026;-79
2021/01/30 05:36:48;;;;;;;0.00;0.00;;;12.60;84.40;;;;;;5005061;28;20037;-79
2021/01/30 05:39:36;;;;;;;0.95;0.17;;;12.60;84.50;;;;;;5007377;28;20038;-79
2021/01/30 05:42:13;;;;;;;0.00;0.00;;;12.60;84.50;;;;;;4996143;28;20053;-78
2021/01/30 05:44:43;;;;;;;0.20;0.00;;;12.60;84.50;;;;;;4980392;28;20026;-79
2021/01/30 05:47:20;;;;;;;0.35;0.30;;;12.60;84.50;;;;;;5027279;28;20628;-78
2021/01/30 05:49:57;;;;;;;0.00;0.00;;;12.60;84.60;;;;;;4979524;28;20413;-79
2021/01/30 05:52:26;;;;;;;0.00;0.00;;;12.60;84.60;;;;;;4979131;28;20025;-78
2021/01/30 05:54:52;;;;;;;2.28;0.32;;;12.60;84.60;;;;;;4978290;28;20033;-78
2021/01/30 05:57:18;;;;;;;0.00;0.00;;;12.60;84.60;;;;;;4995376;28;20033;-78
2021/01/30 05:59:50;;;;;;;0.00;0.00;;;12.60;84.60;;;;;;4996623;28;20046;-79
2021/01/30 06:02:19;;;;;;;1.90;0.20;;;12.60;84.60;;;;;;4992514;28;20053;-78
2021/01/30 06:04:45;;;;;;;1.58;0.03;;;12.60;84.60;;;;;;4996968;28;20110;-78
2021/01/30 06:07:29;;;;;;;1.08;0.05;;;12.60;85.40;;;;;;4995862;28;20037;-78
2021/01/30 06:09:56;;;;;;;0.10;0.00;;;12.60;84.60;;;;;;5008553;28;20057;-78
2021/01/30 06:12:30;;;;;;;0.00;0.00;;;12.60;84.60;;;;;;4994720;28;20383;-78
2021/01/30 06:15:06;;;;;;;0.57;0.43;;;12.70;84.70;;;;;;4993912;28;20037;-77
2021/01/30 06:17:33;;;;;;;3.50;0.10;;;12.60;84.60;;;;;;4993401;28;20042;-78
2021/01/30 06:20:21;;;;;;;0.00;0.00;;;12.70;84.70;;;;;;4994559;28;20030;-78
2021/01/30 06:23:07;;;;;;;0.22;0.15;;;12.70;84.70;;;;;;4994746;28;20038;-78
2021/01/30 06:25:38;;;;;;;0.80;0.08;;;12.70;84.70;;;;;;4982414;28;20026;-77
2021/01/30 06:28:07;;;;;;;;;;;12.70;84.70;;;;;;4963428;28;20491;-79
2021/01/30 06:30:39;;;;;;;0.10;0.08;;;12.70;84.60;;;;;;4993173;28;19913;-77
2021/01/30 06:33:25;;;;;;;0.17;0.05;;;12.70;84.50;;;;;;4993025;28;20380;-79
2021/01/30 06:36:08;;;;;;;1.17;0.10;;;12.70;84.50;;;;;;4995484;28;20035;-77
2021/01/30 06:38:45;;;;;;;0.35;0.17;;;12.70;84.60;;;;;;4994570;28;20018;-78
2021/01/30 06:41:23;;;;;;;0.00;0.00;;;12.70;84.60;;;;;;4979412;28;20049;-77
2021/01/30 06:44:19;;;;;;;0.00;0.00;;;12.70;84.60;;;;;;4978968;28;20030;-78
2021/01/30 06:47:01;;;;;;;0.00;0.00;;;12.70;84.70;;;;;;4981168;28;20031;-77
2021/01/30 06:49:33;;;;;;;5.20;0.50;;;12.70;84.70;;;;;;5002481;28;20049;-78
2021/01/30 06:52:15;;;;;;;;;;;12.70;84.70;;;;;;4993549;28;20027;-77
2021/01/30 06:54:41;;;;;;;0.28;0.17;;;12.70;84.70;;;;;;5025688;28;19932;-78
2021/01/30 06:57:12;;;;;;;0.20;0.10;;;12.70;84.60;;;;;;5010611;28;20038;-77
2021/01/30 07:00:05;;;;;;;2.35;0.00;;;12.70;84.60;;;;;;4995638;28;20391;-78
2021/01/30 07:02:42;;;;;;;0.10;0.08;;;12.70;84.70;;;;;;4970495;28;20034;-77
2021/01/30 07:05:32;;;;;;;0.32;0.10;;;12.70;84.80;;;;;;4954786;28;20035;-78
2021/01/30 07:08:36;;;;;;;0.80;0.10;;;12.70;84.80;;;;;;4971132;28;20062;-78
2021/01/30 07:11:24;;;;;;;0.32;0.10;;;12.70;84.80;;;;;;4968062;28;20042;-78
2021/01/30 07:13:56;;;;;;;3.97;0.15;;;12.60;84.80;;;;;;4954910;28;20039;-77
2021/01/30 07:16:26;;;;;;;1.95;0.52;;;12.70;84.80;;;;;;4939434;28;20042;-79
2021/01/30 07:19:00;;;;;;;0.00;0.00;;;12.60;84.80;;;;;;4971740;28;20034;-79
2021/01/30 07:21:28;;;;;;;3.30;0.80;;;12.70;84.90;;;;;;4987179;28;20546;-78
2021/01/30 07:24:14;;;;;;;1.70;0.30;;;12.60;84.80;;;;;;4970717;28;20037;-79
2021/01/30 07:26:52;;;;;;;2.00;0.13;;;12.70;84.90;;;;;;4967952;28;20045;-78
2021/01/30 07:29:31;;;;;;;1.75;0.32;;;12.60;84.80;;;;;;4965978;28;20051;-80
2021/01/30 07:32:10;;;;;;;6.00;0.65;;;12.60;84.80;;;;;;4945446;28;20046;-78
2021/01/30 07:35:00;;;;;;;10.77;0.65;;;12.60;84.80;;;;;;4969369;28;20047;-78
2021/01/30 07:37:38;;;;;;;0.57;0.10;;;12.60;84.80;;;;;;4964794;28;20522;-77
2021/01/30 07:40:17;;;;;;;1.50;0.35;;;12.60;84.80;;;;;;4992920;28;20529;-78
2021/01/30 07:42:53;;;;;;;0.28;0.13;;;12.60;84.80;;;;;;5009977;28;20041;-78
2021/01/30 07:45:28;;;;;;;1.73;0.30;;;12.60;84.90;;;;;;4973402;28;20041;-78
2021/01/30 07:48:28;;;;;;;2.30;0.30;;;12.60;84.90;;;;;;4973906;28;20038;-78
2021/01/30 07:51:11;;;;;;;7.05;0.52;;;12.60;84.90;;;;;;4989960;28;20074;-79
2021/01/30 07:53:37;;;;;;;4.00;0.73;;;12.60;84.90;;;;;;4994314;28;20034;-78
2021/01/30 07:56:17;;;;;;;3.05;0.68;;;12.60;84.80;;;;;;4990747;28;20029;-78
2021/01/30 07:59:34;;;;;;;0.75;0.38;;;12.60;84.90;;;;;;5002208;28;20049;-78
2021/01/30 08:02:19;;;;;;;0.98;0.30;;;12.50;84.90;;;;;;5004101;28;20513;-78
2021/01/30 08:07:46;;;;;;;1.00;0.47;;;12.50;84.80;;;;;;4632787;22;20068;-79
2021/01/30 08:10:15;;;;;;;0.77;0.20;;;12.50;84.80;;;;;;5047992;28;20037;-78
2021/01/30 08:13:01;;;;;;;4.90;0.20;;;12.50;84.80;;;;;;5046318;28;20468;-79
2021/01/30 08:16:09;;;;;;;5.50;0.88;;;12.50;84.80;;;;;;5048337;28;20040;-78
2021/01/30 08:18:39;;;;;;;13.88;0.60;;;12.50;84.80;;;;;;5004225;28;20543;-78
2021/01/30 08:21:06;;;;;;;2.00;0.08;;;12.50;84.70;;;;;;4992655;28;20601;-78
2021/01/30 08:23:40;;;;;;;5.38;0.50;;;12.50;85.50;;;;;;4984806;28;20496;-79
2021/01/30 08:26:30;;;;;;;1.85;0.40;;;12.50;84.70;;;;;;5006564;28;20042;-79
2021/01/30 08:29:14;;;;;;;0.50;0.05;;;12.60;84.70;;;;;;4988844;28;20505;-78
2021/01/30 08:31:54;;;;;;;7.05;0.45;;;12.60;84.60;;;;;;4988948;28;20034;-79
2021/01/30 08:34:20;;;;;;;1.00;0.80;;;12.60;84.40;;;;;;4991449;28;20045;-79
2021/01/30 08:37:22;;;;;;;0.10;0.10;;;12.70;84.50;;;;;;5000946;28;20034;-79
2021/01/30 08:40:08;;;;;;;0.85;0.30;;;12.70;84.40;;;;;;4980087;28;20041;-82
2021/01/30 08:42:56;;;;;;;4.95;0.13;;;12.70;84.30;;;;;;4969202;28;20038;-78
2021/01/30 08:45:48;;;;;;;9.23;0.30;;;12.80;84.30;;;;;;4988294;28;20046;-79
2021/01/30 08:48:17;;;;;;;4.50;1.35;;;12.80;84.20;;;;;;4984483;28;20052;-79
2021/01/30 08:50:48;;;;;;;2.55;0.63;;;12.80;84.20;;;;;;5003015;28;20041;-78
2021/01/30 08:53:15;;;;;;;0.38;0.38;;;12.80;84.20;;;;;;5039049;28;20045;-79
2021/01/30 08:55:44;;;;;;;15.23;0.47;;;12.80;84.10;;;;;;5039246;28;20042;-78
2021/01/30 08:58:32;;;;;;;1.60;0.28;;;12.90;84.20;;;;;;5040560;28;20033;-81
2021/01/30 09:01:03;;;;;;;0.10;0.00;;;12.90;84.00;;;;;;5057605;28;20036;-80
2021/01/30 09:03:47;;;;;;;4.43;1.37;;;13.00;83.90;;;;;;5049858;28;20025;-80
2021/01/30 09:06:41;;;;;;;1.85;0.75;;;13.00;83.90;;;;;;5049771;28;20303;-79
2021/01/30 09:09:18;;;;;;;0.30;0.20;;;13.00;83.80;;;;;;5037148;28;20037;-79
2021/01/30 09:11:52;;;;;;;1.65;0.73;;;13.00;83.80;;;;;;5049901;28;20492;-79
2021/01/30 09:14:18;;;;;;;4.38;0.45;;;13.00;83.80;;;;;;5030370;28;20045;-79
2021/01/30 09:17:07;;;;;;;7.38;0.93;;;13.00;83.80;;;;;;5052781;28;20432;-79
2021/01/30 09:19:40;;;;;;;9.45;1.15;;;13.00;83.90;;;;;;5052677;28;20044;-81
2021/01/30 09:22:26;;;;;;;21.05;0.60;;;13.00;83.80;;;;;;5035896;28;20033;-79
2021/01/30 09:25:11;;;;;;;7.50;0.73;;;13.00;83.80;;;;;;5052597;28;20214;-81
2021/01/30 09:28:06;;;;;;;2.30;1.08;;;13.10;83.70;;;;;;5054599;28;20029;-81
2021/01/30 09:30:32;;;;;;;3.83;0.35;;;13.10;83.60;;;;;;5046061;28;20033;-80
2021/01/30 09:32:59;;;;;;;8.43;0.73;;;13.10;83.50;;;;;;5054807;28;20388;-80
2021/01/30 09:35:32;;;;;;;5.68;0.57;;;13.20;83.40;;;;;;5037298;28;20029;-81
2021/01/30 09:37:58;;;;;;;0.63;0.38;;;13.20;83.40;;;;;;5053370;28;20032;-80
2021/01/30 09:40:27;;;;;;;0.47;0.03;;;13.20;84.20;;;;;;5035860;28;20366;-80
2021/01/30 09:43:00;;;;;;;2.63;0.65;;;13.20;83.40;;;;;;5046390;28;20025;-78
2021/01/30 09:45:26;;;;;;;10.70;0.90;;;13.20;83.40;;;;;;5050705;28;20029;-77
2021/01/30 09:47:52;;;;;;;13.93;1.05;;;13.20;83.40;;;;;;5051632;28;20044;-79
2021/01/30 09:50:25;;;;;;;6.95;0.85;;;13.20;83.50;;;;;;5036171;28;20057;-78
2021/01/30 09:52:54;;;;;;;5.85;0.90;;;13.20;83.60;;;;;;5050114;28;20032;-79
2021/01/30 09:55:21;;;;;;;28.33;1.48;;;13.20;83.60;;;;;;5031962;28;20366;-78
2021/01/30 09:57:47;;;;;;;21.55;1.13;;;13.30;83.50;;;;;;5050297;28;20103;-78
2021/01/30 10:00:16;;;;;;;10.48;0.77;;;13.40;83.40;;;;;;5050666;28;20033;-80
2021/01/30 10:02:42;;;;;;;3.30;1.13;;;13.40;83.30;;;;;;5036402;28;20039;-80
2021/01/30 10:05:11;;;;;;;3.20;0.88;;;13.40;83.30;;;;;;5054524;28;20037;-78
2021/01/30 10:07:37;;;;;;;29.80;1.45;;;13.50;83.30;;;;;;5045546;28;20052;-78
2021/01/30 10:10:23;;;;;;;4.47;1.17;;;13.60;83.20;;;;;;5054309;28;20369;-79
2021/01/30 10:12:49;;;;;;;2.03;0.43;;;13.70;83.10;;;;;;5050243;28;20044;-79
2021/01/30 10:15:29;;;;;;;12.68;1.17;;;13.80;82.80;;;;;;5035295;28;20396;-80
2021/01/30 10:17:55;;;;;;;0.70;0.35;;;13.90;82.50;;;;;;5037371;28;20017;-80
2021/01/30 10:20:21;;;;;;;18.70;1.95;;;14.00;82.30;;;;;;5053377;28;20044;-80
2021/01/30 10:22:49;;;;;;;5.68;0.75;;;14.00;82.30;;;;;;5054394;28;20514;-79
2021/01/30 10:25:23;;;;;;;10.27;1.13;;;13.90;82.40;;;;;;5040601;28;20026;-82
2021/01/30 10:27:49;;;;;;;5.63;1.13;;;13.90;82.50;;;;;;5060819;28;20021;-80
2021/01/30 10:30:17;;;;;;;3.40;0.80;;;13.90;82.50;;;;;;5035303;28;20068;-80
2021/01/30 10:32:53;;;;;;;4.30;0.82;;;13.80;82.60;;;;;;5034806;28;20021;-83
2021/01/30 10:35:42;;;;;;;17.70;0.90;;;13.80;82.70;;;;;;5034562;28;20037;-79
2021/01/30 10:38:19;;;;;;;1.73;0.28;;;13.70;82.70;;;;;;5039935;28;20388;-80
2021/01/30 10:40:55;;;;;;;4.90;0.95;;;13.80;82.80;;;;;;5013186;28;20042;-79
2021/01/30 10:43:29;;;;;;;2.10;0.30;;;13.80;82.80;;;;;;5048462;28;20017;-80
2021/01/30 10:45:59;;;;;;;7.80;0.50;;;13.90;82.70;;;;;;5047512;28;20036;-79
2021/01/30 10:48:33;;;;;;;1.63;0.60;;;14.00;82.60;;;;;;5033654;28;20021;-79
2021/01/30 10:51:24;;;;;;;17.60;0.45;;;14.20;82.30;;;;;;5049087;28;20048;-78
2021/01/30 10:54:06;;;;;;;7.03;0.73;;;14.30;82.70;;;;;;5049699;28;20033;-79
2021/01/30 10:56:32;;;;;;;16.08;1.65;;;14.40;81.80;;;;;;5049585;28;20267;-79
2021/01/30 10:58:59;;;;;;;11.15;1.33;;;14.40;81.70;;;;;;5051933;28;20033;-79
2021/01/30 11:01:31;;;;;;;6.82;0.65;;;14.50;81.40;;;;;;5029383;28;20029;-80
2021/01/30 11:03:59;;;;;;;4.30;1.00;;;14.60;81.30;;;;;;5031931;28;20036;-80
2021/01/30 11:06:32;;;;;;;1.83;0.77;;;14.50;81.30;;;;;;5034570;28;20484;-81
2021/01/30 11:09:20;;;;;;;21.58;1.60;;;14.50;81.30;;;;;;5051269;28;20036;-80
2021/01/30 11:11:47;;;;;;;9.35;1.15;;;14.50;81.50;;;;;;5046198;28;20049;-79
2021/01/30 11:14:29;;;;;;;0.47;0.38;;;14.40;81.60;;;;;;5035387;28;20401;-80
2021/01/30 11:16:55;;;;;;;5.38;0.90;;;14.30;81.70;;;;;;5036329;28;20048;-82
2021/01/30 11:19:38;;;;;;;0.55;0.17;;;14.20;81.80;;;;;;5051151;28;20040;-79
2021/01/30 11:22:40;;;;;;;1.77;0.20;;;14.10;82.00;;;;;;5048102;28;20036;-78
2021/01/30 11:25:09;;;;;;;2.17;0.45;;;14.00;82.20;;;;;;5045745;28;20044;-83
2021/01/30 11:27:38;;;;;;;7.25;1.80;;;14.00;82.20;;;;;;5050156;28;20025;-80
2021/01/30 11:30:14;;;;;;;3.13;0.65;;;14.00;82.30;;;;;;5051846;28;20056;-79
2021/01/30 11:32:40;;;;;;;13.60;0.90;;;14.00;82.20;;;;;;5026438;28;20041;-81
2021/01/30 11:35:07;;;;;;;6.38;0.75;;;14.00;82.10;;;;;;5034652;28;20044;-80
2021/01/30 11:37:33;;;;;;;6.38;0.75;;;14.00;82.00;;;;;;5034294;28;20406;-80
2021/01/30 11:40:08;;;;;;;5.53;0.60;;;14.00;82.00;;;;;;5045369;28;20033;-79
2021/01/30 11:42:35;;;;;;;1.52;0.75;;;14.10;81.90;;;;;;5035781;28;20040;-78
2021/01/30 11:45:01;;;;;;;5.82;0.30;;;14.10;81.90;;;;;;5051068;28;20041;-79
2021/01/30 11:47:27;;;;;;;1.73;1.10;;;14.10;81.80;;;;;;5051637;28;20048;-83
2021/01/30 11:49:53;;;;;;;5.70;0.30;;;14.10;82.60;;;;;;5051947;28;20048;-81
2021/01/30 11:52:22;;;;;;;15.27;1.40;;;14.10;81.80;;;;;;5052394;28;20037;-79
2021/01/30 11:54:48;;;;;;;17.42;0.63;;;14.10;81.80;;;;;;5035718;28;20029;-79
2021/01/30 11:57:14;;;;;;;17.27;0.65;;;14.00;81.70;;;;;;5052040;28;20025;-78
2021/01/30 11:59:40;;;;;;;3.28;0.68;;;14.00;81.80;;;;;;5055974;28;20033;-79
2021/01/30 12:02:16;;;;;;;2.58;0.57;;;14.00;81.80;;;;;;5048493;28;20381;-80
2021/01/30 12:04:42;;;;;;;4.03;1.20;;;13.90;81.90;;;;;;5050442;28;20036;-80
2021/01/30 12:07:09;;;;;;;1.02;0.32;;;13.80;81.90;;;;;;5048930;28;20045;-81
2021/01/30 12:09:35;;;;;;;0.68;0.10;;;13.80;82.10;;;;;;5047771;28;20369;-82
2021/01/30 12:12:01;;;;;;;1.95;0.38;;;13.70;82.20;;;;;;5049532;28;20397;-81
2021/01/30 12:14:27;;;;;;;1.95;0.17;;;13.70;82.20;;;;;;5050439;28;20044;-79
2021/01/30 12:16:53;;;;;;;1.35;0.50;;;13.80;82.20;;;;;;5049479;28;20033;-79
2021/01/30 12:19:20;;;;;;;11.38;0.57;;;13.80;82.10;;;;;;5012738;28;20041;-79
2021/01/30 12:21:46;;;;;;;3.45;0.65;;;13.80;82.00;;;;;;5040509;28;20481;-81
2021/01/30 12:24:12;;;;;;;4.53;0.55;;;13.90;82.00;;;;;;5048391;28;20476;-79
2021/01/30 12:26:38;;;;;;;3.53;0.40;;;13.90;81.90;;;;;;5040100;28;20477;-80
2021/01/30 12:29:04;;;;;;;3.92;1.02;;;13.90;81.70;;;;;;5049951;28;20040;-81
2021/01/30 12:31:31;;;;;;;12.15;0.82;;;13.90;81.70;;;;;;5048610;28;20416;-79
2021/01/30 12:33:57;;;;;;;4.40;0.47;;;14.00;81.80;;;;;;5047967;28;20555;-80
2021/01/30 12:36:23;;;;;;;0.45;0.30;;;14.00;81.60;;;;;;5050164;28;20040;-81
2021/01/30 12:38:49;;;;;;;1.65;0.60;;;14.10;81.50;;;;;;5050054;28;20047;-79
2021/01/30 12:41:15;;;;;;;1.05;0.60;;;14.10;81.30;;;;;;5049139;28;20033;-81
2021/01/30 12:43:41;;;;;;;3.80;0.50;;;14.10;81.20;;;;;;5023904;28;20041;-79
2021/01/30 12:46:07;;;;;;;1.45;0.85;;;14.10;81.20;;;;;;5041573;28;20048;-80
2021/01/30 12:48:33;;;;;;;5.07;0.22;;;14.10;81.20;;;;;;5032344;28;20036;-80
2021/01/30 12:50:59;;;;;;;6.85;0.40;;;14.20;81.20;;;;;;5047030;28;20037;-80
2021/01/30 12:53:26;;;;;;;7.03;0.75;;;14.20;81.20;;;;;;5050548;28;20039;-82
2021/01/30 12:55:52;;;;;;;11.52;1.48;;;14.20;81.10;;;;;;5046592;28;20084;-80
2021/01/30 12:58:21;;;;;;;2.10;0.75;;;14.20;81.10;;;;;;5042077;28;20033;-81
2021/01/30 13:00:47;;;;;;;6.13;0.22;;;14.20;81.00;;;;;;5040557;28;20052;-79
2021/01/30 13:03:14;;;;;;;2.53;0.40;;;14.10;80.90;;;;;;5047892;28;20365;-80
2021/01/30 13:05:42;;;;;;;1.00;0.25;;;14.00;81.10;;;;;;5031225;28;20055;-80
2021/01/30 13:08:08;;;;;;;2.50;1.20;;;14.00;81.30;;;;;;5049228;28;20033;-80
2021/01/30 13:10:34;;;;;;;0.57;0.13;;;13.90;81.40;;;;;;5047421;28;20056;-79
2021/01/30 13:13:00;;;;;;;1.85;0.65;;;13.80;81.50;;;;;;5031568;28;20037;-79
2021/01/30 13:15:26;;;;;;;4.38;0.68;;;13.80;81.70;;;;;;5031430;28;20393;-80
2021/01/30 13:17:52;;;;;;;7.85;1.02;;;13.70;81.70;;;;;;5044510;28;20040;-81
2021/01/30 13:20:19;;;;;;;8.13;0.55;;;13.70;81.80;;;;;;5043754;28;20025;-82